Terminal Aerodrome Forecast
Issued by NWS

Home | Current Version | Previous Version | Text Only | Print | Product List | Glossary Off
Versions: 1 2 3 4 5 6 7 8 9 10 11 12 13

000
FTUS45 KGGW 170520
TAFSDY
TAF
KSDY 170520Z 1706/1806 VRB03KT 6SM BR SCT010
     FM170700 VRB04KT 6SM BR SCT010
     FM170900 VRB03KT 1/4SM FG VV001
     FM171500 17005KT 4SM BR SCT045
     FM171600 VRB06KT P6SM FEW030 FEW200=

USA.gov is the U.S. government's official web portal to all federal, state and local government web resources and services.